createdAt,value
2023-01-07T00:00:58.721Z,96004.1
2023-01-07T00:02:01.381Z,96005.5
2023-01-07T00:03:04.169Z,96008
2023-01-07T00:04:07.335Z,96005.8
2023-01-07T00:05:10.056Z,96003.9
2023-01-07T00:06:12.580Z,96004.6
2023-01-07T00:07:14.974Z,96005.2
2023-01-07T00:08:17.492Z,96007.2
2023-01-07T00:09:20.016Z,96006.4
2023-01-07T00:10:22.357Z,96007.4
2023-01-07T00:11:24.391Z,96001.1
2023-01-07T00:12:26.906Z,96005.3
2023-01-07T00:13:29.426Z,95997.5
2023-01-07T00:14:31.944Z,96002.6
2023-01-07T00:15:34.462Z,96002.2
2023-01-07T00:16:36.428Z,96003.7
2023-01-07T00:17:38.808Z,96001.9
2023-01-07T00:18:41.040Z,95996.3
2023-01-07T00:19:43.260Z,95995.6
2023-01-07T00:20:45.222Z,95999.4
2023-01-07T00:21:47.807Z,95994.4
2023-01-07T00:22:50.461Z,95996.8
2023-01-07T00:23:52.654Z,95996.7
2023-01-07T00:24:55.177Z,95990
2023-01-07T00:25:57.805Z,95995.9
2023-01-07T00:27:00.020Z,95989.4
2023-01-07T00:28:02.549Z,95986.3
2023-01-07T00:29:05.062Z,95988.7
2023-01-07T00:30:07.592Z,95983.6
2023-01-07T00:31:10.313Z,95985.5
2023-01-07T00:32:12.972Z,95979
2023-01-07T00:33:15.655Z,95983.2
2023-01-07T00:34:18.188Z,95980.8
2023-01-07T00:35:20.780Z,95979.5
2023-01-07T00:36:23.303Z,95979.8
2023-01-07T00:37:25.782Z,95982.1
2023-01-07T00:38:28.435Z,95981
2023-01-07T00:39:30.939Z,95982.5
2023-01-07T00:40:33.464Z,95982.7
2023-01-07T00:41:35.844Z,95981.3
2023-01-07T00:42:38.351Z,95978.6
2023-01-07T00:43:40.872Z,95980
2023-01-07T00:44:43.391Z,95981.4
2023-01-07T00:45:45.916Z,95983.7
2023-01-07T00:46:48.783Z,95984
2023-01-07T00:47:51.109Z,95981.8
2023-01-07T00:48:53.773Z,95981.2
2023-01-07T00:49:56.294Z,95980.7
2023-01-07T00:50:58.823Z,95982.8
2023-01-07T00:52:01.111Z,95977.7
2023-01-07T00:53:03.905Z,95981.5
2023-01-07T00:54:06.552Z,95985.4
2023-01-07T00:55:09.053Z,95984.9
2023-01-07T00:56:11.354Z,95983.7
2023-01-07T00:57:14.067Z,95986.3
2023-01-07T00:58:16.623Z,95984
2023-01-07T00:59:19.151Z,95982.7
2023-01-07T01:00:21.707Z,95983.6
2023-01-07T01:01:24.665Z,95987.3
2023-01-07T01:02:27.495Z,95986.3
2023-01-07T01:03:30.144Z,95979
2023-01-07T01:04:32.241Z,95981.7
2023-01-07T01:05:34.456Z,95982
2023-01-07T01:06:36.258Z,95979
2023-01-07T01:07:38.469Z,95977.7
2023-01-07T01:08:41.137Z,95975.8
2023-01-07T01:09:43.796Z,95978.6
2023-01-07T01:10:46.028Z,95974.8
2023-01-07T01:11:48.232Z,95974.5
2023-01-07T01:12:50.891Z,95975.9
2023-01-07T01:13:53.382Z,95975.8
2023-01-07T01:14:55.629Z,95973.9
2023-01-07T01:15:58.412Z,95979.6
2023-01-07T01:17:01.036Z,95980.7
2023-01-07T01:18:03.257Z,95979.9
2023-01-07T01:19:05.484Z,95975.6
2023-01-07T01:20:08.112Z,95976.1
2023-01-07T01:21:10.643Z,95975.8
2023-01-07T01:22:13.129Z,95978.3
2023-01-07T01:23:15.632Z,95971.3
2023-01-07T01:24:18.431Z,95975.3
2023-01-07T01:25:21.051Z,95972.4
2023-01-07T01:26:23.551Z,95974
2023-01-07T01:27:26.055Z,95971.9
2023-01-07T01:28:28.680Z,95972.1
2023-01-07T01:29:30.923Z,95978.5
2023-01-07T01:30:33.448Z,95974.6
2023-01-07T01:31:36.282Z,95979.8
2023-01-07T01:32:38.965Z,95974
2023-01-07T01:33:41.469Z,95975.2
2023-01-07T01:34:44.002Z,95973.4
2023-01-07T01:35:46.386Z,95975.9
2023-01-07T01:36:48.613Z,95972.4
2023-01-07T01:37:51.143Z,95973.4
2023-01-07T01:38:53.703Z,95971.7
2023-01-07T01:39:56.284Z,95970.6
2023-01-07T01:40:58.944Z,95970
2023-01-07T01:42:02.202Z,95970.3
2023-01-07T01:43:04.694Z,95966.5
2023-01-07T01:44:07.331Z,95966
2023-01-07T01:45:09.854Z,95969.7
2023-01-07T01:46:12.351Z,95965.3
2023-01-07T01:47:14.598Z,95963.9
2023-01-07T01:48:17.117Z,95966.5
2023-01-07T01:49:19.622Z,95963.1
2023-01-07T01:50:22.127Z,95961
2023-01-07T01:51:24.763Z,95963.1
2023-01-07T01:52:27.252Z,95964.9
2023-01-07T01:53:29.751Z,95962.6
2023-01-07T01:54:32.265Z,95964.6
2023-01-07T01:55:35.036Z,95962.4
2023-01-07T01:56:37.713Z,95960.5
2023-01-07T01:57:40.240Z,95958.3
2023-01-07T01:58:42.730Z,95959.5
2023-01-07T01:59:45.390Z,95954.9
2023-01-07T02:00:47.939Z,95955.5
2023-01-07T02:01:51.335Z,95948.4
2023-01-07T02:02:54.227Z,95947.8
2023-01-07T02:03:56.741Z,95948.4
2023-01-07T02:04:59.265Z,95950.8
2023-01-07T02:06:01.196Z,95950
2023-01-07T02:07:03.514Z,95951.7
2023-01-07T02:08:06.067Z,95947.1
2023-01-07T02:09:08.599Z,95946.5
2023-01-07T02:10:10.852Z,95942
2023-01-07T02:11:13.328Z,95944.7
2023-01-07T02:12:15.709Z,95946.2
2023-01-07T02:13:17.941Z,95941.3
2023-01-07T02:14:19.875Z,95937.7
2023-01-07T02:15:22.506Z,95940.6
2023-01-07T02:16:25.397Z,95939.5
2023-01-07T02:17:28.004Z,95938.2
2023-01-07T02:18:30.217Z,95932.7
2023-01-07T02:19:32.716Z,95936
2023-01-07T02:20:35.225Z,95933.4
2023-01-07T02:21:37.787Z,95940.6
2023-01-07T02:22:40.409Z,95938.2
2023-01-07T02:23:42.906Z,95933.7
2023-01-07T02:24:45.126Z,95934.6
2023-01-07T02:25:47.393Z,95936.3
2023-01-07T02:26:49.784Z,95935.5
2023-01-07T02:27:52.509Z,95933.2
2023-01-07T02:28:54.763Z,95932.9
2023-01-07T02:29:57.275Z,95929.3
2023-01-07T02:30:59.910Z,95926.1
2023-01-07T02:32:02.120Z,95927.2
2023-01-07T02:33:04.663Z,95929.5
2023-01-07T02:34:07.163Z,95923.6
2023-01-07T02:35:09.683Z,95929.8
2023-01-07T02:36:11.918Z,95927.6
2023-01-07T02:37:14.412Z,95928.6
2023-01-07T02:38:17.054Z,95931.1
2023-01-07T02:39:19.035Z,95927.8
2023-01-07T02:40:21.272Z,95929.3
2023-01-07T02:41:23.545Z,95928.1
2023-01-07T02:42:25.702Z,95922
2023-01-07T02:43:28.356Z,95927.8
2023-01-07T02:44:30.588Z,95920.7
2023-01-07T02:45:33.322Z,95919.3
2023-01-07T02:46:35.839Z,95917.3
2023-01-07T02:47:38.363Z,95920.1
2023-01-07T02:48:40.888Z,95917.5
2023-01-07T02:49:43.430Z,95918
2023-01-07T02:50:45.939Z,95915.5
2023-01-07T02:51:47.898Z,95915.8
2023-01-07T02:52:50.431Z,95915.1
2023-01-07T02:53:53.103Z,95913.8
2023-01-07T02:54:55.333Z,95913.4
2023-01-07T02:55:57.285Z,95914
2023-01-07T02:56:59.806Z,95914.8
2023-01-07T02:58:02.304Z,95909.3
2023-01-07T02:59:04.992Z,95910.4
2023-01-07T03:00:07.230Z,95905.6
2023-01-07T03:01:10.001Z,95905.6
2023-01-07T03:02:12.934Z,95904.1
2023-01-07T03:03:15.167Z,95900.9
2023-01-07T03:04:17.464Z,95906
2023-01-07T03:05:19.830Z,95900.5
2023-01-07T03:06:22.338Z,95902.3
2023-01-07T03:07:24.605Z,95902.4
2023-01-07T03:08:26.855Z,95901.1
2023-01-07T03:09:29.492Z,95894.2
2023-01-07T03:10:32.005Z,95899.6
2023-01-07T03:11:34.529Z,95895.3
2023-01-07T03:12:36.778Z,95898.4
2023-01-07T03:13:39.533Z,95899.4
2023-01-07T03:14:42.167Z,95896.6
2023-01-07T03:15:44.410Z,95901.2
2023-01-07T03:16:47.166Z,95898.3
2023-01-07T03:17:49.901Z,95902
2023-01-07T03:18:52.180Z,95900.9
2023-01-07T03:19:54.415Z,95898
2023-01-07T03:20:56.960Z,95898.3
2023-01-07T03:21:59.189Z,95897.6
2023-01-07T03:23:01.670Z,95896.8
2023-01-07T03:24:04.249Z,95894.1
2023-01-07T03:25:06.877Z,95890.3
2023-01-07T03:26:09.147Z,95887.3
2023-01-07T03:27:11.143Z,95888.4
2023-01-07T03:28:13.351Z,95886.7
2023-01-07T03:29:15.889Z,95887.6
2023-01-07T03:30:18.293Z,95885.5
2023-01-07T03:31:20.742Z,95887.6
2023-01-07T03:32:23.316Z,95886.2
2023-01-07T03:33:25.963Z,95881.8
2023-01-07T03:34:28.485Z,95882.1
2023-01-07T03:35:31.010Z,95876.5
2023-01-07T03:36:33.517Z,95880
2023-01-07T03:37:36.030Z,95875.2
2023-01-07T03:38:37.976Z,95874.7
2023-01-07T03:39:39.925Z,95872.6
2023-01-07T03:40:42.535Z,95870.6
2023-01-07T03:41:45.057Z,95875.2
2023-01-07T03:42:47.554Z,95872.2
2023-01-07T03:43:50.075Z,95873.5
2023-01-07T03:44:52.538Z,95869.8
2023-01-07T03:45:55.456Z,95870.1
2023-01-07T03:46:58.037Z,95870.9
2023-01-07T03:48:00.619Z,95864.1
2023-01-07T03:49:03.258Z,95867
2023-01-07T03:50:05.613Z,95858.5
2023-01-07T03:51:08.113Z,95860.8
2023-01-07T03:52:10.617Z,95861.8
2023-01-07T03:53:12.866Z,95862.8
2023-01-07T03:54:14.866Z,95859.1
2023-01-07T03:55:17.108Z,95865.5
2023-01-07T03:56:19.742Z,95858.1
2023-01-07T03:57:21.422Z,95859.1
2023-01-07T03:58:23.972Z,95859.1
2023-01-07T03:59:25.961Z,95858.3
2023-01-07T04:00:28.741Z,95853.6
2023-01-07T04:01:31.929Z,95854.9
2023-01-07T04:02:34.686Z,95850.9
2023-01-07T04:03:37.192Z,95849.1
2023-01-07T04:04:39.590Z,95845.8
2023-01-07T04:05:42.280Z,95843
2023-01-07T04:06:44.786Z,95845.1
2023-01-07T04:07:46.760Z,95844.9
2023-01-07T04:08:49.012Z,95841.9
2023-01-07T04:09:51.237Z,95837.4
2023-01-07T04:10:53.764Z,95835.3
2023-01-07T04:11:56.413Z,95833.8
2023-01-07T04:12:58.924Z,95830.8
2023-01-07T04:14:01.170Z,95827.9
2023-01-07T04:15:03.754Z,95829.6
2023-01-07T04:16:06.278Z,95826.6
2023-01-07T04:17:08.931Z,95823.9
2023-01-07T04:18:11.463Z,95826.1
2023-01-07T04:19:13.988Z,95823.8
2023-01-07T04:20:16.619Z,95823.8
2023-01-07T04:21:19.126Z,95826.2
2023-01-07T04:22:21.382Z,95821.5
2023-01-07T04:23:23.889Z,95819.1
2023-01-07T04:24:26.106Z,95813
2023-01-07T04:25:28.619Z,95818.4
2023-01-07T04:26:31.118Z,95816.6
2023-01-07T04:27:33.796Z,95815.3
2023-01-07T04:28:36.011Z,95813.8
2023-01-07T04:29:38.519Z,95815.6
2023-01-07T04:30:41.056Z,95814.3
2023-01-07T04:31:43.933Z,95809.5
2023-01-07T04:32:46.577Z,95812.9
2023-01-07T04:33:48.805Z,95809.6
2023-01-07T04:34:51.107Z,95808.8
2023-01-07T04:35:53.735Z,95803.3
2023-01-07T04:36:55.959Z,95803.3
2023-01-07T04:37:58.177Z,95803.5
2023-01-07T04:39:00.419Z,95802.8
2023-01-07T04:40:02.942Z,95799.3
2023-01-07T04:41:05.199Z,95800.7
2023-01-07T04:42:07.755Z,95797.9
2023-01-07T04:43:10.434Z,95796.6
2023-01-07T04:44:12.960Z,95796.3
2023-01-07T04:45:15.467Z,95795.8
2023-01-07T04:46:18.313Z,95795.4
2023-01-07T04:47:20.845Z,95794.9
2023-01-07T04:48:23.218Z,95789.7
2023-01-07T04:49:25.758Z,95783.4
2023-01-07T04:50:27.724Z,95783.9
2023-01-07T04:51:30.348Z,95780.6
2023-01-07T04:52:32.876Z,95783.1
2023-01-07T04:53:35.374Z,95785.6
2023-01-07T04:54:37.862Z,95778.8
2023-01-07T04:55:40.082Z,95779.9
2023-01-07T04:56:42.302Z,95781.9
2023-01-07T04:57:44.516Z,95774.6
2023-01-07T04:58:47.157Z,95777.6
2023-01-07T04:59:49.716Z,95774
2023-01-07T05:00:52.440Z,95773.4
2023-01-07T05:01:54.808Z,95770.8
2023-01-07T05:02:57.799Z,95768.1
2023-01-07T05:04:00.597Z,95769.4
2023-01-07T05:05:02.972Z,95765.2
2023-01-07T05:06:05.503Z,95767.6
2023-01-07T05:07:08.115Z,95764
2023-01-07T05:08:10.073Z,95760.8
2023-01-07T05:09:12.622Z,95758.6
2023-01-07T05:10:15.148Z,95762.5
2023-01-07T05:11:17.641Z,95755.2
2023-01-07T05:12:19.869Z,95757
2023-01-07T05:13:22.429Z,95757.2
2023-01-07T05:14:24.979Z,95753.1
2023-01-07T05:15:26.926Z,95756.3
2023-01-07T05:16:29.668Z,95756.2
2023-01-07T05:17:32.275Z,95753.3
2023-01-07T05:18:35.064Z,95753
2023-01-07T05:19:37.610Z,95749.6
2023-01-07T05:20:39.854Z,95747.4
2023-01-07T05:21:42.112Z,95745.8
2023-01-07T05:22:44.637Z,95746.7
2023-01-07T05:23:46.913Z,95740.9
2023-01-07T05:24:49.431Z,95741.9
2023-01-07T05:25:51.387Z,95741.3
2023-01-07T05:26:53.380Z,95745.8
2023-01-07T05:27:55.932Z,95744.4
2023-01-07T05:28:58.429Z,95738.4
2023-01-07T05:30:01.147Z,95739.4
2023-01-07T05:31:04.174Z,95739
2023-01-07T05:32:06.529Z,95740.3
2023-01-07T05:33:09.049Z,95738.8
2023-01-07T05:34:11.699Z,95736.6
2023-01-07T05:35:14.033Z,95732.4
2023-01-07T05:36:16.515Z,95734
2023-01-07T05:37:19.087Z,95732.4
2023-01-07T05:38:21.445Z,95728.6
2023-01-07T05:39:23.943Z,95728.5
2023-01-07T05:40:26.459Z,95726.9
2023-01-07T05:41:28.986Z,95726.6
2023-01-07T05:42:31.554Z,95718
2023-01-07T05:43:34.064Z,95720.4
2023-01-07T05:44:36.319Z,95727
2023-01-07T05:45:38.999Z,95726.8
2023-01-07T05:46:41.220Z,95721.8
2023-01-07T05:47:43.444Z,95721.8
2023-01-07T05:48:45.684Z,95715.3
2023-01-07T05:49:48.152Z,95716.4
2023-01-07T05:50:50.785Z,95718.9
2023-01-07T05:51:53.299Z,95715.3
2023-01-07T05:52:55.516Z,95717.4
2023-01-07T05:53:58.174Z,95715.8
2023-01-07T05:55:00.399Z,95718.5
2023-01-07T05:56:03.000Z,95717.8
2023-01-07T05:57:05.539Z,95713.5
2023-01-07T05:58:08.091Z,95716.6
2023-01-07T05:59:10.596Z,95717.4
2023-01-07T06:00:12.846Z,95714.3
2023-01-07T06:01:15.476Z,95710.7
2023-01-07T06:02:18.101Z,95712.8
2023-01-07T06:03:20.871Z,95709.9
2023-01-07T06:04:23.635Z,95711.9
2023-01-07T06:05:26.482Z,95710.9
2023-01-07T06:06:29.081Z,95715.5
2023-01-07T06:07:31.304Z,95707.4
2023-01-07T06:08:33.683Z,95714.1
2023-01-07T06:09:36.313Z,95707.2
2023-01-07T06:10:38.843Z,95702.7
2023-01-07T06:11:41.354Z,95703
2023-01-07T06:12:43.882Z,95705.2
2023-01-07T06:13:46.385Z,95704.8
2023-01-07T06:14:48.888Z,95703.8
2023-01-07T06:15:51.653Z,95703.4
2023-01-07T06:16:54.184Z,95703.9
2023-01-07T06:17:56.403Z,95701.7
2023-01-07T06:18:58.908Z,95700.1
2023-01-07T06:20:01.408Z,95698.1
2023-01-07T06:21:04.202Z,95695.5
2023-01-07T06:22:06.582Z,95699.5
2023-01-07T06:23:08.806Z,95696.6
2023-01-07T06:24:11.026Z,95700.3
2023-01-07T06:25:13.656Z,95700.4
2023-01-07T06:26:16.199Z,95695.3
2023-01-07T06:27:18.711Z,95695.1
2023-01-07T06:28:20.943Z,95695.4
2023-01-07T06:29:23.169Z,95702.3
2023-01-07T06:30:25.696Z,95694.8
2023-01-07T06:31:28.030Z,95696.1
2023-01-07T06:32:30.800Z,95701.6
2023-01-07T06:33:34.776Z,95699.4
2023-01-07T06:34:37.291Z,95699.7
2023-01-07T06:35:39.554Z,95697.2
2023-01-07T06:36:42.307Z,95699.5
2023-01-07T06:37:44.978Z,95698.2
2023-01-07T06:38:47.217Z,95696.1
2023-01-07T06:39:49.713Z,95694.8
2023-01-07T06:40:52.348Z,95693.8
2023-01-07T06:41:54.591Z,95695.4
2023-01-07T06:42:57.099Z,95696.7
2023-01-07T06:43:59.779Z,95693.4
2023-01-07T06:45:02.560Z,95688.7
2023-01-07T06:46:05.041Z,95686.8
2023-01-07T06:47:07.558Z,95686.2
2023-01-07T06:48:09.908Z,95686
2023-01-07T06:49:12.943Z,95682.9
2023-01-07T06:50:14.905Z,95683
2023-01-07T06:51:17.438Z,95680
2023-01-07T06:52:20.201Z,95681.3
2023-01-07T06:53:22.592Z,95683.8
2023-01-07T06:54:25.095Z,95681.5
2023-01-07T06:55:27.615Z,95683.8
2023-01-07T06:56:30.264Z,95678.7
2023-01-07T06:57:32.742Z,95679.9
2023-01-07T06:58:35.024Z,95680.6
2023-01-07T06:59:37.525Z,95683.4
2023-01-07T07:00:40.047Z,95681.7
2023-01-07T07:01:46.363Z,95678.3
2023-01-07T07:02:51.014Z,95682.1
2023-01-07T07:03:53.689Z,95681
2023-01-07T07:04:56.217Z,95677.7
2023-01-07T07:05:58.435Z,95680.7
2023-01-07T07:07:00.650Z,95683
2023-01-07T07:08:03.405Z,95683.8
2023-01-07T07:09:06.064Z,95681.3
2023-01-07T07:10:08.769Z,95682.1
2023-01-07T07:11:11.318Z,95682.3
2023-01-07T07:12:13.711Z,95682.9
2023-01-07T07:13:16.233Z,95681.1
2023-01-07T07:14:18.736Z,95681.5
2023-01-07T07:15:20.943Z,95680.2
2023-01-07T07:16:23.587Z,95679.9
2023-01-07T07:17:26.079Z,95679.3
2023-01-07T07:18:28.614Z,95677.4
2023-01-07T07:19:31.283Z,95673.4
2023-01-07T07:20:33.283Z,95673.1
2023-01-07T07:21:35.285Z,95674.7
2023-01-07T07:22:37.796Z,95677.6
2023-01-07T07:23:40.471Z,95672
2023-01-07T07:24:43.084Z,95673.3
2023-01-07T07:25:45.309Z,95669.8
2023-01-07T07:26:47.828Z,95667.9
2023-01-07T07:27:50.533Z,95669
2023-01-07T07:28:53.037Z,95665.4
2023-01-07T07:29:55.290Z,95666.4
2023-01-07T07:30:57.434Z,95666.5
2023-01-07T07:32:00.145Z,95669.8
2023-01-07T07:33:02.642Z,95665
2023-01-07T07:34:05.173Z,95662.4
2023-01-07T07:35:07.860Z,95667.4
2023-01-07T07:36:10.094Z,95665.7
2023-01-07T07:37:12.619Z,95657
2023-01-07T07:38:15.181Z,95659.5
2023-01-07T07:39:17.647Z,95656.2
2023-01-07T07:40:20.017Z,95658.8
2023-01-07T07:41:24.554Z,95654.2
2023-01-07T07:42:27.060Z,95654.3
2023-01-07T07:43:29.687Z,95649.5
2023-01-07T07:44:31.905Z,95654.3
2023-01-07T07:45:34.412Z,95651.9
2023-01-07T07:46:37.321Z,95650.5
2023-01-07T07:47:40.157Z,95654.2
2023-01-07T07:48:42.687Z,95651
2023-01-07T07:49:45.228Z,95652.7
2023-01-07T07:50:47.865Z,95652.5
2023-01-07T07:51:50.364Z,95655.5
2023-01-07T07:52:52.348Z,95651.8
2023-01-07T07:53:54.329Z,95653.1
2023-01-07T07:56:02.075Z,95647.4
2023-01-07T07:57:04.705Z,95647.9
2023-01-07T07:58:06.976Z,95645.3
2023-01-07T07:59:09.350Z,95644.6
2023-01-07T08:00:11.931Z,95642
2023-01-07T08:01:14.707Z,95643
2023-01-07T08:02:17.750Z,95640.5
2023-01-07T08:03:20.311Z,95640.1
2023-01-07T08:04:22.651Z,95644.6
2023-01-07T08:05:25.242Z,95642.1
2023-01-07T08:06:27.883Z,95643.9
2023-01-07T08:08:35.202Z,95641.3
2023-01-07T08:09:37.714Z,95642
2023-01-07T08:10:40.235Z,95634.6
2023-01-07T08:11:43.027Z,95641.1
2023-01-07T08:12:45.681Z,95641.3
2023-01-07T08:13:47.948Z,95638.3
2023-01-07T08:14:50.579Z,95637.5
2023-01-07T08:15:53.124Z,95640.9
2023-01-07T08:16:55.518Z,95638.7
2023-01-07T08:17:58.046Z,95637.7
2023-01-07T08:19:00.635Z,95637.6
2023-01-07T08:20:03.193Z,95636.1
2023-01-07T08:21:05.710Z,95639.5
2023-01-07T08:22:08.357Z,95637.2
2023-01-07T08:23:10.342Z,95630.4
2023-01-07T08:24:12.589Z,95634.5
2023-01-07T08:25:15.130Z,95633.6
2023-01-07T08:26:17.099Z,95628.6
2023-01-07T08:27:19.623Z,95626.3
2023-01-07T08:28:22.282Z,95627.7
2023-01-07T08:29:24.520Z,95629.1
2023-01-07T08:30:27.045Z,95624.5
2023-01-07T08:31:29.966Z,95622.9
2023-01-07T08:32:32.573Z,95627.6
2023-01-07T08:33:35.112Z,95623.2
2023-01-07T08:34:37.599Z,95621.2
2023-01-07T08:35:39.396Z,95628.8
2023-01-07T08:36:41.916Z,95629.1
2023-01-07T08:37:44.278Z,95625.9
2023-01-07T08:38:46.216Z,95620.6
2023-01-07T08:39:47.893Z,95619.4
2023-01-07T08:40:50.131Z,95619.5
2023-01-07T08:41:52.657Z,95623.1
2023-01-07T08:42:55.152Z,95615.8
2023-01-07T08:43:57.847Z,95617
2023-01-07T08:45:00.157Z,95613.9
2023-01-07T08:46:02.587Z,95613.3
2023-01-07T08:47:04.818Z,95610.5
2023-01-07T08:48:07.405Z,95605.4
2023-01-07T08:49:09.927Z,95604.6
2023-01-07T08:50:12.200Z,95607.6
2023-01-07T08:51:14.749Z,95604.3
2023-01-07T08:52:17.248Z,95603.2
2023-01-07T08:53:19.865Z,95598.9
2023-01-07T08:54:22.398Z,95602.2
2023-01-07T08:55:24.924Z,95600
2023-01-07T08:56:27.186Z,95596.8
2023-01-07T08:57:29.698Z,95596.3
2023-01-07T08:58:32.393Z,95594
2023-01-07T08:59:34.770Z,95590
2023-01-07T09:00:37.576Z,95592.1
2023-01-07T09:01:41.291Z,95587.6
2023-01-07T09:02:43.968Z,95588.6
2023-01-07T09:03:46.296Z,95591.5
2023-01-07T09:04:48.529Z,95587.7
2023-01-07T09:05:50.536Z,95590.5
2023-01-07T09:06:52.750Z,95591.5
2023-01-07T09:07:55.052Z,95589.5
2023-01-07T09:08:57.122Z,95591.8
2023-01-07T09:09:59.369Z,95590.8
2023-01-07T09:11:01.891Z,95591.1
2023-01-07T09:12:04.166Z,95591.4
2023-01-07T09:13:06.180Z,95590.5
2023-01-07T09:14:08.982Z,95587.1
2023-01-07T09:15:11.614Z,95585.9
2023-01-07T09:16:14.340Z,95586.5
2023-01-07T09:17:17.037Z,95584.9
2023-01-07T09:18:19.557Z,95582.3
2023-01-07T09:19:22.057Z,95585.5
2023-01-07T09:20:24.431Z,95582.9
2023-01-07T09:21:26.667Z,95584.6
2023-01-07T09:22:28.600Z,95583.2
2023-01-07T09:23:30.848Z,95583.2
2023-01-07T09:24:33.202Z,95580.2
2023-01-07T09:25:35.427Z,95579.9
2023-01-07T09:26:37.971Z,95579.7
2023-01-07T09:27:40.500Z,95580.9
2023-01-07T09:28:43.024Z,95583.3
2023-01-07T09:29:45.524Z,95579.9
2023-01-07T09:30:48.163Z,95577.8
2023-01-07T09:31:51.206Z,95571.8
2023-01-07T09:32:53.770Z,95577.3
2023-01-07T09:33:56.014Z,95578.6
2023-01-07T09:34:58.520Z,95576.2
2023-01-07T09:36:01.035Z,95574.8
2023-01-07T09:37:03.582Z,95576
2023-01-07T09:38:05.282Z,95572.9
2023-01-07T09:39:07.491Z,95576.7
2023-01-07T09:40:09.823Z,95570
2023-01-07T09:41:12.327Z,95571.6
2023-01-07T09:42:14.862Z,95569.7
2023-01-07T09:43:17.092Z,95568
2023-01-07T09:44:19.602Z,95569.6
2023-01-07T09:45:22.063Z,95566.2
2023-01-07T09:46:24.437Z,95561.8
2023-01-07T09:47:26.981Z,95563.8
2023-01-07T09:48:29.621Z,95563.9
2023-01-07T09:49:32.117Z,95563.4
2023-01-07T09:50:34.657Z,95560.4
2023-01-07T09:51:37.175Z,95563.4
2023-01-07T09:52:39.456Z,95560.5
2023-01-07T09:53:41.986Z,95557.5
2023-01-07T09:54:44.492Z,95554.1
2023-01-07T09:56:52.096Z,95545
2023-01-07T09:57:54.629Z,95546
2023-01-07T09:58:57.128Z,95541.8
2023-01-07T09:59:59.633Z,95542.5
2023-01-07T10:01:02.700Z,95540.6
2023-01-07T10:02:05.417Z,95544.4
2023-01-07T10:03:07.943Z,95544.2
2023-01-07T10:04:10.837Z,95539.3
2023-01-07T10:05:13.468Z,95537.8
2023-01-07T10:06:16.007Z,95536
2023-01-07T10:07:18.253Z,95536.7
2023-01-07T10:09:25.726Z,95532.4
2023-01-07T10:10:28.281Z,95536.3
2023-01-07T10:11:30.788Z,95535.1
2023-01-07T10:12:33.425Z,95534.3
2023-01-07T10:13:35.947Z,95530.8
2023-01-07T10:14:38.429Z,95534.5
2023-01-07T10:15:40.643Z,95531.3
2023-01-07T10:16:44.004Z,95533
2023-01-07T10:17:46.994Z,95529.4
2023-01-07T10:18:49.256Z,95529.8
2023-01-07T10:19:51.808Z,95527.2
2023-01-07T10:20:54.025Z,95526.4
2023-01-07T10:21:56.555Z,95523.8
2023-01-07T10:22:58.542Z,95523.6
2023-01-07T10:24:00.832Z,95524.3
2023-01-07T10:25:03.382Z,95521.9
2023-01-07T10:26:05.663Z,95514
2023-01-07T10:27:08.192Z,95517
2023-01-07T10:28:10.881Z,95513.2
2023-01-07T10:29:12.862Z,95512.3
2023-01-07T10:30:15.384Z,95515.5
2023-01-07T10:31:18.225Z,95508.8
2023-01-07T10:32:21.056Z,95508.4
2023-01-07T10:33:23.686Z,95502.8
2023-01-07T10:34:26.218Z,95500.6
2023-01-07T10:35:28.841Z,95497.5
2023-01-07T10:36:31.339Z,95498.4
2023-01-07T10:37:33.839Z,95495.9
2023-01-07T10:38:36.379Z,95494.3
2023-01-07T10:39:38.900Z,95490.4
2023-01-07T10:40:41.440Z,95487
2023-01-07T10:41:43.686Z,95487.6
2023-01-07T10:42:46.258Z,95487.8
2023-01-07T10:43:48.607Z,95482.8
2023-01-07T10:44:51.126Z,95484.2
2023-01-07T10:45:54.115Z,95478
2023-01-07T10:46:56.768Z,95479.5
2023-01-07T10:47:59.172Z,95476.8
2023-01-07T10:49:01.824Z,95474.6
2023-01-07T10:50:03.821Z,95478.9
2023-01-07T10:51:05.926Z,95475.8
2023-01-07T10:52:08.156Z,95477.6
2023-01-07T10:53:10.406Z,95472.6
2023-01-07T10:54:12.396Z,95470.5
2023-01-07T10:55:14.952Z,95468.7
2023-01-07T10:56:17.504Z,95462.8
2023-01-07T10:57:20.049Z,95466.3
2023-01-07T10:58:22.303Z,95466.5
2023-01-07T10:59:24.973Z,95460.4
2023-01-07T11:00:27.478Z,95461.9
2023-01-07T11:01:30.453Z,95459.9
2023-01-07T11:02:33.734Z,95458.2
2023-01-07T11:03:35.802Z,95457.8
2023-01-07T11:04:38.071Z,95461.3
2023-01-07T11:05:40.631Z,95459.7
2023-01-07T11:06:43.309Z,95461.1
2023-01-07T11:07:45.885Z,95460.4
2023-01-07T11:08:48.145Z,95462.5
2023-01-07T11:09:50.407Z,95457.6
2023-01-07T11:10:52.914Z,95458.3
2023-01-07T11:11:54.881Z,95453.4
2023-01-07T11:12:57.108Z,95452.1
2023-01-07T11:13:59.432Z,95448.7
2023-01-07T11:15:01.830Z,95448.9
2023-01-07T11:16:04.221Z,95444.2
2023-01-07T11:17:06.528Z,95441.6
2023-01-07T11:18:09.320Z,95438.2
2023-01-07T11:19:14.463Z,95435.8
2023-01-07T11:20:17.123Z,95435.2
2023-01-07T11:22:24.741Z,95431
2023-01-07T11:23:26.974Z,95427.4
2023-01-07T11:24:29.191Z,95423.6
2023-01-07T11:25:31.707Z,95423.6
2023-01-07T11:26:34.220Z,95418.2
2023-01-07T11:27:36.750Z,95416.8
2023-01-07T11:28:39.308Z,95412.7
2023-01-07T11:29:41.544Z,95409.8
2023-01-07T11:30:44.235Z,95406.4
2023-01-07T11:31:47.085Z,95398.6
2023-01-07T11:32:49.408Z,95404.8
2023-01-07T11:34:57.293Z,95403
2023-01-07T11:35:59.911Z,95400
2023-01-07T11:37:02.437Z,95395.8
2023-01-07T11:38:04.805Z,95398.5
2023-01-07T11:39:07.301Z,95396.4
2023-01-07T11:40:09.528Z,95391.8
2023-01-07T11:41:12.076Z,95390
2023-01-07T11:42:14.327Z,95387.3
2023-01-07T11:43:16.839Z,95388.4
2023-01-07T11:44:19.424Z,95386
2023-01-07T11:45:21.961Z,95391.4
2023-01-07T11:47:29.600Z,95385.6
2023-01-07T11:48:32.114Z,95382.9
2023-01-07T11:49:34.351Z,95382.9
2023-01-07T11:50:36.902Z,95384.2
2023-01-07T11:51:39.566Z,95382.7
2023-01-07T11:52:41.818Z,95377
2023-01-07T11:53:44.171Z,95375
2023-01-07T11:54:46.679Z,95374
2023-01-07T11:55:49.182Z,95372.9
2023-01-07T11:56:54.919Z,95369.9
2023-01-07T11:59:02.276Z,95371.2
2023-01-07T12:00:04.906Z,95366.7
2023-01-07T12:01:07.734Z,95370.9
2023-01-07T12:02:10.445Z,95365.4
2023-01-07T12:03:13.383Z,95365.9
2023-01-07T12:04:15.453Z,95359.7
2023-01-07T12:05:17.964Z,95360.3
2023-01-07T12:06:20.473Z,95356.9
2023-01-07T12:07:23.160Z,95357.5
2023-01-07T12:08:25.681Z,95355.8
2023-01-07T12:09:28.097Z,95352.4
2023-01-07T12:10:30.308Z,95352.6
2023-01-07T12:11:32.861Z,95352.4
2023-01-07T12:12:35.469Z,95349.8
2023-01-07T12:13:38.034Z,95344.4
2023-01-07T12:14:40.313Z,95346.7
2023-01-07T12:15:42.815Z,95349
2023-01-07T12:16:45.845Z,95349
2023-01-07T12:17:48.149Z,95351.3
2023-01-07T12:18:50.530Z,95341.4
2023-01-07T12:19:53.047Z,95343.3
2023-01-07T12:20:55.278Z,95345.9
2023-01-07T12:21:57.968Z,95344.7
2023-01-07T12:23:00.542Z,95341.1
2023-01-07T12:24:02.898Z,95341
2023-01-07T12:25:05.153Z,95336.8
2023-01-07T12:26:07.710Z,95336.7
2023-01-07T12:27:10.059Z,95337.4
2023-01-07T12:28:12.042Z,95335.9
2023-01-07T12:29:14.577Z,95333.1
2023-01-07T12:30:17.117Z,95336.2
2023-01-07T12:31:19.427Z,95332.1
2023-01-07T12:32:21.849Z,95332.1
2023-01-07T12:33:24.071Z,95330.5
2023-01-07T12:34:26.395Z,95330.3
2023-01-07T12:35:28.883Z,95330.1
2023-01-07T12:36:31.427Z,95331
2023-01-07T12:37:33.896Z,95327.6
2023-01-07T12:38:40.870Z,95329.5
2023-01-07T12:39:43.105Z,95332.9
2023-01-07T12:40:45.819Z,95332.2
2023-01-07T12:41:48.195Z,95328.1
2023-01-07T12:42:50.437Z,95329.5
2023-01-07T12:44:59.922Z,95330.8
2023-01-07T12:46:02.558Z,95326
2023-01-07T12:48:09.855Z,95326.7
2023-01-07T12:49:12.410Z,95329.2
2023-01-07T12:50:15.202Z,95319.5
2023-01-07T12:51:17.711Z,95320.5
2023-01-07T12:52:20.221Z,95318.3